sensor_id;sensor_type;location;lat;lon;timestamp;temperature;humidity
18091;DHT22;9172;49.948;9.208;2023-07-30T00:02:05;19.80;99.90
18091;DHT22;9172;49.948;9.208;2023-07-30T00:04:34;19.80;99.90
18091;DHT22;9172;49.948;9.208;2023-07-30T00:07:03;19.80;99.90
18091;DHT22;9172;49.948;9.208;2023-07-30T00:09:32;19.80;99.90
18091;DHT22;9172;49.948;9.208;2023-07-30T00:12:02;19.80;99.90
18091;DHT22;9172;49.948;9.208;2023-07-30T00:14:31;19.70;99.90
18091;DHT22;9172;49.948;9.208;2023-07-30T00:17:01;19.70;99.90
18091;DHT22;9172;49.948;9.208;2023-07-30T00:19:31;19.70;99.90
18091;DHT22;9172;49.948;9.208;2023-07-30T00:22:00;19.70;99.90
18091;DHT22;9172;49.948;9.208;2023-07-30T00:24:29;19.70;99.90
18091;DHT22;9172;49.948;9.208;2023-07-30T00:26:57;19.70;99.90
18091;DHT22;9172;49.948;9.208;2023-07-30T00:29:26;19.70;99.90
18091;DHT22;9172;49.948;9.208;2023-07-30T00:31:56;19.70;99.90
18091;DHT22;9172;49.948;9.208;2023-07-30T00:34:25;19.70;99.90
18091;DHT22;9172;49.948;9.208;2023-07-30T00:36:53;19.70;99.90
18091;DHT22;9172;49.948;9.208;2023-07-30T00:39:22;19.70;99.90
18091;DHT22;9172;49.948;9.208;2023-07-30T00:41:50;19.70;99.90
18091;DHT22;9172;49.948;9.208;2023-07-30T00:44:19;19.70;99.90
18091;DHT22;9172;49.948;9.208;2023-07-30T00:46:48;19.60;99.90
18091;DHT22;9172;49.948;9.208;2023-07-30T00:49:16;19.60;99.90
18091;DHT22;9172;49.948;9.208;2023-07-30T00:51:45;19.60;99.90
18091;DHT22;9172;49.948;9.208;2023-07-30T00:54:14;19.60;99.90
18091;DHT22;9172;49.948;9.208;2023-07-30T00:56:47;19.60;99.90
18091;DHT22;9172;49.948;9.208;2023-07-30T00:59:15;19.60;99.90
18091;DHT22;9172;49.948;9.208;2023-07-30T01:01:45;19.50;99.90
18091;DHT22;9172;49.948;9.208;2023-07-30T01:04:14;19.50;99.90
18091;DHT22;9172;49.948;9.208;2023-07-30T01:06:45;19.50;99.90
18091;DHT22;9172;49.948;9.208;2023-07-30T01:09:15;19.40;99.90
18091;DHT22;9172;49.948;9.208;2023-07-30T01:11:44;19.40;99.90
18091;DHT22;9172;49.948;9.208;2023-07-30T01:14:14;19.40;99.90
18091;DHT22;9172;49.948;9.208;2023-07-30T01:16:43;19.40;99.90
18091;DHT22;9172;49.948;9.208;2023-07-30T01:19:12;19.40;99.90
18091;DHT22;9172;49.948;9.208;2023-07-30T01:21:40;19.40;99.90
18091;DHT22;9172;49.948;9.208;2023-07-30T01:24:09;19.40;99.90
18091;DHT22;9172;49.948;9.208;2023-07-30T01:26:40;19.30;99.90
18091;DHT22;9172;49.948;9.208;2023-07-30T01:29:13;19.30;99.90
18091;DHT22;9172;49.948;9.208;2023-07-30T01:31:43;19.30;99.90
18091;DHT22;9172;49.948;9.208;2023-07-30T01:34:13;19.20;99.90
18091;DHT22;9172;49.948;9.208;2023-07-30T01:36:44;19.30;99.90
18091;DHT22;9172;49.948;9.208;2023-07-30T01:39:15;19.20;99.90
18091;DHT22;9172;49.948;9.208;2023-07-30T01:41:43;19.20;99.90
18091;DHT22;9172;49.948;9.208;2023-07-30T01:44:12;19.20;99.90
18091;DHT22;9172;49.948;9.208;2023-07-30T01:46:41;19.20;99.90
18091;DHT22;9172;49.948;9.208;2023-07-30T01:49:10;19.20;99.90
18091;DHT22;9172;49.948;9.208;2023-07-30T01:51:40;19.20;99.90
18091;DHT22;9172;49.948;9.208;2023-07-30T01:54:10;19.20;99.90
18091;DHT22;9172;49.948;9.208;2023-07-30T01:56:40;19.20;99.90
18091;DHT22;9172;49.948;9.208;2023-07-30T01:59:10;19.20;99.90
18091;DHT22;9172;49.948;9.208;2023-07-30T02:01:38;19.20;99.90
18091;DHT22;9172;49.948;9.208;2023-07-30T02:04:07;19.10;99.90
18091;DHT22;9172;49.948;9.208;2023-07-30T02:06:36;19.10;99.90
18091;DHT22;9172;49.948;9.208;2023-07-30T02:09:04;19.10;99.90
18091;DHT22;9172;49.948;9.208;2023-07-30T02:11:34;19.10;99.90
18091;DHT22;9172;49.948;9.208;2023-07-30T02:14:03;19.20;99.90
18091;DHT22;9172;49.948;9.208;2023-07-30T02:16:32;19.10;99.90
18091;DHT22;9172;49.948;9.208;2023-07-30T02:19:01;19.20;99.90
18091;DHT22;9172;49.948;9.208;2023-07-30T02:21:30;19.20;99.90
18091;DHT22;9172;49.948;9.208;2023-07-30T02:24:01;19.20;99.90
18091;DHT22;9172;49.948;9.208;2023-07-30T02:26:29;19.20;99.90
18091;DHT22;9172;49.948;9.208;2023-07-30T02:28:59;19.20;99.90
18091;DHT22;9172;49.948;9.208;2023-07-30T02:31:28;19.20;99.90
18091;DHT22;9172;49.948;9.208;2023-07-30T02:33:56;19.20;99.90
18091;DHT22;9172;49.948;9.208;2023-07-30T02:36:25;19.10;99.90
18091;DHT22;9172;49.948;9.208;2023-07-30T02:38:54;19.10;99.90
18091;DHT22;9172;49.948;9.208;2023-07-30T02:41:23;19.10;99.90
18091;DHT22;9172;49.948;9.208;2023-07-30T02:43:52;19.10;99.90
18091;DHT22;9172;49.948;9.208;2023-07-30T02:46:22;19.10;99.90
18091;DHT22;9172;49.948;9.208;2023-07-30T02:48:52;19.10;99.90
18091;DHT22;9172;49.948;9.208;2023-07-30T02:51:22;19.10;99.90
18091;DHT22;9172;49.948;9.208;2023-07-30T02:53:54;19.10;99.90
18091;DHT22;9172;49.948;9.208;2023-07-30T02:56:24;19.00;99.90
18091;DHT22;9172;49.948;9.208;2023-07-30T02:58:53;19.00;99.90
18091;DHT22;9172;49.948;9.208;2023-07-30T03:01:22;19.00;99.90
18091;DHT22;9172;49.948;9.208;2023-07-30T03:03:50;19.00;99.90
18091;DHT22;9172;49.948;9.208;2023-07-30T03:06:19;19.00;99.90
18091;DHT22;9172;49.948;9.208;2023-07-30T03:08:47;19.00;99.90
18091;DHT22;9172;49.948;9.208;2023-07-30T03:11:16;18.90;99.90
18091;DHT22;9172;49.948;9.208;2023-07-30T03:13:45;18.90;99.90
18091;DHT22;9172;49.948;9.208;2023-07-30T03:16:14;18.90;99.90
18091;DHT22;9172;49.948;9.208;2023-07-30T03:18:43;18.90;99.90
18091;DHT22;9172;49.948;9.208;2023-07-30T03:21:13;18.90;99.90
18091;DHT22;9172;49.948;9.208;2023-07-30T03:23:42;18.90;99.90
18091;DHT22;9172;49.948;9.208;2023-07-30T03:26:11;18.90;99.90
18091;DHT22;9172;49.948;9.208;2023-07-30T03:28:40;18.90;99.90
18091;DHT22;9172;49.948;9.208;2023-07-30T03:31:10;18.90;99.90
18091;DHT22;9172;49.948;9.208;2023-07-30T03:33:39;18.90;99.90
18091;DHT22;9172;49.948;9.208;2023-07-30T03:36:11;18.90;99.90
18091;DHT22;9172;49.948;9.208;2023-07-30T03:38:41;18.80;99.90
18091;DHT22;9172;49.948;9.208;2023-07-30T03:41:10;18.80;99.90
18091;DHT22;9172;49.948;9.208;2023-07-30T03:43:39;18.80;99.90
18091;DHT22;9172;49.948;9.208;2023-07-30T03:46:08;18.70;99.90
18091;DHT22;9172;49.948;9.208;2023-07-30T03:48:38;18.70;99.90
18091;DHT22;9172;49.948;9.208;2023-07-30T03:51:07;18.70;99.90
18091;DHT22;9172;49.948;9.208;2023-07-30T03:53:36;18.70;99.90
18091;DHT22;9172;49.948;9.208;2023-07-30T03:56:05;18.70;99.90
18091;DHT22;9172;49.948;9.208;2023-07-30T03:58:34;18.60;99.90
18091;DHT22;9172;49.948;9.208;2023-07-30T04:01:03;18.60;99.90
18091;DHT22;9172;49.948;9.208;2023-07-30T04:03:32;18.60;99.90
18091;DHT22;9172;49.948;9.208;2023-07-30T04:06:00;18.60;99.90
18091;DHT22;9172;49.948;9.208;2023-07-30T04:08:30;18.70;99.90
18091;DHT22;9172;49.948;9.208;2023-07-30T04:10:58;18.60;99.90
18091;DHT22;9172;49.948;9.208;2023-07-30T04:13:28;18.60;99.90
18091;DHT22;9172;49.948;9.208;2023-07-30T04:15:56;18.60;99.90
18091;DHT22;9172;49.948;9.208;2023-07-30T04:18:25;18.60;99.90
18091;DHT22;9172;49.948;9.208;2023-07-30T04:20:55;18.60;99.90
18091;DHT22;9172;49.948;9.208;2023-07-30T04:23:24;18.60;99.90
18091;DHT22;9172;49.948;9.208;2023-07-30T04:25:52;18.70;99.90
18091;DHT22;9172;49.948;9.208;2023-07-30T04:28:21;18.70;99.90
18091;DHT22;9172;49.948;9.208;2023-07-30T04:30:50;18.70;99.90
18091;DHT22;9172;49.948;9.208;2023-07-30T04:33:19;18.70;99.90
18091;DHT22;9172;49.948;9.208;2023-07-30T04:35:47;18.50;99.90
18091;DHT22;9172;49.948;9.208;2023-07-30T04:38:16;18.30;99.90
18091;DHT22;9172;49.948;9.208;2023-07-30T04:40:46;18.30;99.90
18091;DHT22;9172;49.948;9.208;2023-07-30T04:43:15;18.30;99.90
18091;DHT22;9172;49.948;9.208;2023-07-30T04:45:44;18.40;99.90
18091;DHT22;9172;49.948;9.208;2023-07-30T04:48:13;18.50;99.90
18091;DHT22;9172;49.948;9.208;2023-07-30T04:50:42;18.60;99.90
18091;DHT22;9172;49.948;9.208;2023-07-30T04:53:11;18.50;99.90
18091;DHT22;9172;49.948;9.208;2023-07-30T04:55:40;18.60;99.90
18091;DHT22;9172;49.948;9.208;2023-07-30T04:58:09;18.50;99.90
18091;DHT22;9172;49.948;9.208;2023-07-30T05:00:37;18.60;99.90
18091;DHT22;9172;49.948;9.208;2023-07-30T05:03:06;18.60;99.90
18091;DHT22;9172;49.948;9.208;2023-07-30T05:05:35;18.70;99.90
18091;DHT22;9172;49.948;9.208;2023-07-30T05:08:04;18.70;99.90
18091;DHT22;9172;49.948;9.208;2023-07-30T05:10:33;18.70;99.90
18091;DHT22;9172;49.948;9.208;2023-07-30T05:13:02;18.70;99.90
18091;DHT22;9172;49.948;9.208;2023-07-30T05:15:30;18.70;99.90
18091;DHT22;9172;49.948;9.208;2023-07-30T05:17:59;18.70;99.90
18091;DHT22;9172;49.948;9.208;2023-07-30T05:20:27;18.70;99.90
18091;DHT22;9172;49.948;9.208;2023-07-30T05:22:57;18.70;99.90
18091;DHT22;9172;49.948;9.208;2023-07-30T05:25:26;18.80;99.90
18091;DHT22;9172;49.948;9.208;2023-07-30T05:27:54;18.80;99.90
18091;DHT22;9172;49.948;9.208;2023-07-30T05:30:23;18.80;99.90
18091;DHT22;9172;49.948;9.208;2023-07-30T05:32:52;18.90;99.90
18091;DHT22;9172;49.948;9.208;2023-07-30T05:35:22;18.90;99.90
18091;DHT22;9172;49.948;9.208;2023-07-30T05:37:51;19.00;99.90
18091;DHT22;9172;49.948;9.208;2023-07-30T05:40:21;19.00;99.90
18091;DHT22;9172;49.948;9.208;2023-07-30T05:42:50;19.00;99.90
18091;DHT22;9172;49.948;9.208;2023-07-30T05:45:18;19.00;99.90
18091;DHT22;9172;49.948;9.208;2023-07-30T05:47:49;19.00;99.90
18091;DHT22;9172;49.948;9.208;2023-07-30T05:50:18;19.00;99.90
18091;DHT22;9172;49.948;9.208;2023-07-30T05:52:46;19.00;99.90
18091;DHT22;9172;49.948;9.208;2023-07-30T05:55:15;19.10;99.90
18091;DHT22;9172;49.948;9.208;2023-07-30T05:57:44;19.10;99.90
18091;DHT22;9172;49.948;9.208;2023-07-30T06:00:13;19.10;99.90
18091;DHT22;9172;49.948;9.208;2023-07-30T06:02:43;19.10;99.90
18091;DHT22;9172;49.948;9.208;2023-07-30T06:05:12;19.10;99.90
18091;DHT22;9172;49.948;9.208;2023-07-30T06:07:41;19.10;99.90
18091;DHT22;9172;49.948;9.208;2023-07-30T06:10:10;19.20;99.90
18091;DHT22;9172;49.948;9.208;2023-07-30T06:12:40;19.20;99.90
18091;DHT22;9172;49.948;9.208;2023-07-30T06:15:10;19.30;99.90
18091;DHT22;9172;49.948;9.208;2023-07-30T06:17:38;19.30;99.90
18091;DHT22;9172;49.948;9.208;2023-07-30T06:20:10;19.30;99.90
18091;DHT22;9172;49.948;9.208;2023-07-30T06:22:39;19.30;99.90
18091;DHT22;9172;49.948;9.208;2023-07-30T06:25:07;19.30;99.90
18091;DHT22;9172;49.948;9.208;2023-07-30T06:27:36;19.30;99.90
18091;DHT22;9172;49.948;9.208;2023-07-30T06:30:07;19.30;99.90
18091;DHT22;9172;49.948;9.208;2023-07-30T06:32:36;19.40;99.90
18091;DHT22;9172;49.948;9.208;2023-07-30T06:35:06;19.50;99.90
18091;DHT22;9172;49.948;9.208;2023-07-30T06:37:35;19.60;99.90
18091;DHT22;9172;49.948;9.208;2023-07-30T06:40:05;19.70;99.90
18091;DHT22;9172;49.948;9.208;2023-07-30T06:42:34;19.80;99.90
18091;DHT22;9172;49.948;9.208;2023-07-30T06:45:03;19.90;99.90
18091;DHT22;9172;49.948;9.208;2023-07-30T06:47:33;19.90;99.90
18091;DHT22;9172;49.948;9.208;2023-07-30T06:50:02;20.00;99.90
18091;DHT22;9172;49.948;9.208;2023-07-30T06:52:31;20.10;99.90
18091;DHT22;9172;49.948;9.208;2023-07-30T06:55:00;20.20;99.90
18091;DHT22;9172;49.948;9.208;2023-07-30T06:57:28;20.20;99.90
18091;DHT22;9172;49.948;9.208;2023-07-30T06:59:57;20.30;99.90
18091;DHT22;9172;49.948;9.208;2023-07-30T07:02:27;20.40;99.90
18091;DHT22;9172;49.948;9.208;2023-07-30T07:04:57;20.50;99.90
18091;DHT22;9172;49.948;9.208;2023-07-30T07:07:26;20.60;99.90
18091;DHT22;9172;49.948;9.208;2023-07-30T07:09:54;20.70;99.90
18091;DHT22;9172;49.948;9.208;2023-07-30T07:12:23;20.70;99.90
18091;DHT22;9172;49.948;9.208;2023-07-30T07:14:53;20.70;99.90
18091;DHT22;9172;49.948;9.208;2023-07-30T07:17:23;20.70;99.90
18091;DHT22;9172;49.948;9.208;2023-07-30T07:19:53;20.70;99.90
18091;DHT22;9172;49.948;9.208;2023-07-30T07:22:21;20.60;99.90
18091;DHT22;9172;49.948;9.208;2023-07-30T07:24:51;20.60;99.90
18091;DHT22;9172;49.948;9.208;2023-07-30T07:27:20;20.60;99.90
18091;DHT22;9172;49.948;9.208;2023-07-30T07:29:50;20.70;99.90
18091;DHT22;9172;49.948;9.208;2023-07-30T07:32:19;20.70;99.90
18091;DHT22;9172;49.948;9.208;2023-07-30T07:34:48;20.70;99.90
18091;DHT22;9172;49.948;9.208;2023-07-30T07:37:17;20.70;99.90
18091;DHT22;9172;49.948;9.208;2023-07-30T07:39:46;20.70;99.90
18091;DHT22;9172;49.948;9.208;2023-07-30T07:42:16;20.70;99.90
18091;DHT22;9172;49.948;9.208;2023-07-30T07:44:45;20.70;99.90
18091;DHT22;9172;49.948;9.208;2023-07-30T07:47:15;20.70;99.90
18091;DHT22;9172;49.948;9.208;2023-07-30T07:49:44;20.70;99.90
18091;DHT22;9172;49.948;9.208;2023-07-30T07:52:14;20.70;99.90
18091;DHT22;9172;49.948;9.208;2023-07-30T07:54:43;20.80;99.90
18091;DHT22;9172;49.948;9.208;2023-07-30T07:57:11;20.90;99.90
18091;DHT22;9172;49.948;9.208;2023-07-30T07:59:41;20.90;99.90
18091;DHT22;9172;49.948;9.208;2023-07-30T08:02:12;21.00;99.90
18091;DHT22;9172;49.948;9.208;2023-07-30T08:04:40;21.10;99.90
18091;DHT22;9172;49.948;9.208;2023-07-30T08:07:09;21.10;99.90
18091;DHT22;9172;49.948;9.208;2023-07-30T08:09:37;21.20;99.90
18091;DHT22;9172;49.948;9.208;2023-07-30T08:12:07;21.20;99.90
18091;DHT22;9172;49.948;9.208;2023-07-30T08:14:36;21.20;99.90
18091;DHT22;9172;49.948;9.208;2023-07-30T08:17:05;21.10;99.90
18091;DHT22;9172;49.948;9.208;2023-07-30T08:19:33;21.10;99.90
18091;DHT22;9172;49.948;9.208;2023-07-30T08:22:03;21.00;99.90
18091;DHT22;9172;49.948;9.208;2023-07-30T08:24:33;20.90;99.90
18091;DHT22;9172;49.948;9.208;2023-07-30T08:27:02;20.70;99.90
18091;DHT22;9172;49.948;9.208;2023-07-30T08:29:32;20.60;99.90
18091;DHT22;9172;49.948;9.208;2023-07-30T08:32:01;20.50;99.90
18091;DHT22;9172;49.948;9.208;2023-07-30T08:34:30;20.30;99.90
18091;DHT22;9172;49.948;9.208;2023-07-30T08:36:59;19.90;99.90
18091;DHT22;9172;49.948;9.208;2023-07-30T08:39:28;19.70;99.90
18091;DHT22;9172;49.948;9.208;2023-07-30T08:41:57;19.40;99.90
18091;DHT22;9172;49.948;9.208;2023-07-30T08:44:27;19.20;99.90
18091;DHT22;9172;49.948;9.208;2023-07-30T08:46:55;19.00;99.90
18091;DHT22;9172;49.948;9.208;2023-07-30T08:49:24;18.90;99.90
18091;DHT22;9172;49.948;9.208;2023-07-30T08:51:56;18.80;99.90
18091;DHT22;9172;49.948;9.208;2023-07-30T08:54:25;18.70;99.90
18091;DHT22;9172;49.948;9.208;2023-07-30T08:56:55;18.70;99.90
18091;DHT22;9172;49.948;9.208;2023-07-30T08:59:25;18.80;99.90
18091;DHT22;9172;49.948;9.208;2023-07-30T09:01:56;18.90;99.90
18091;DHT22;9172;49.948;9.208;2023-07-30T09:04:26;19.10;99.90
18091;DHT22;9172;49.948;9.208;2023-07-30T09:07:00;19.30;99.90
18091;DHT22;9172;49.948;9.208;2023-07-30T09:09:28;19.40;99.90
18091;DHT22;9172;49.948;9.208;2023-07-30T09:11:57;19.50;99.90
18091;DHT22;9172;49.948;9.208;2023-07-30T09:14:27;19.60;99.90
18091;DHT22;9172;49.948;9.208;2023-07-30T09:16:57;19.70;99.90
18091;DHT22;9172;49.948;9.208;2023-07-30T09:19:26;19.70;99.90
18091;DHT22;9172;49.948;9.208;2023-07-30T09:21:56;19.80;99.90
18091;DHT22;9172;49.948;9.208;2023-07-30T09:24:25;19.90;99.90
18091;DHT22;9172;49.948;9.208;2023-07-30T09:26:54;20.00;99.90
18091;DHT22;9172;49.948;9.208;2023-07-30T09:29:25;20.10;99.90
18091;DHT22;9172;49.948;9.208;2023-07-30T09:31:54;20.10;99.90
18091;DHT22;9172;49.948;9.208;2023-07-30T09:37:05;20.30;99.90
18091;DHT22;9172;49.948;9.208;2023-07-30T09:39:34;20.40;99.90
18091;DHT22;9172;49.948;9.208;2023-07-30T09:42:05;20.50;99.90
18091;DHT22;9172;49.948;9.208;2023-07-30T09:44:35;20.60;99.90
18091;DHT22;9172;49.948;9.208;2023-07-30T09:47:09;20.60;99.90
18091;DHT22;9172;49.948;9.208;2023-07-30T09:49:38;20.60;99.90
18091;DHT22;9172;49.948;9.208;2023-07-30T09:52:07;20.60;99.90
18091;DHT22;9172;49.948;9.208;2023-07-30T09:54:38;20.60;99.90
18091;DHT22;9172;49.948;9.208;2023-07-30T09:57:08;20.70;99.90
18091;DHT22;9172;49.948;9.208;2023-07-30T09:59:37;20.80;99.90
18091;DHT22;9172;49.948;9.208;2023-07-30T10:02:08;20.80;99.90
18091;DHT22;9172;49.948;9.208;2023-07-30T10:04:38;20.90;99.90
18091;DHT22;9172;49.948;9.208;2023-07-30T10:09:48;21.00;99.90
18091;DHT22;9172;49.948;9.208;2023-07-30T10:12:22;21.00;99.90
18091;DHT22;9172;49.948;9.208;2023-07-30T10:14:52;21.00;99.90
18091;DHT22;9172;49.948;9.208;2023-07-30T10:17:21;20.90;99.90
18091;DHT22;9172;49.948;9.208;2023-07-30T10:19:51;21.00;99.90
18091;DHT22;9172;49.948;9.208;2023-07-30T10:22:23;21.00;99.90
18091;DHT22;9172;49.948;9.208;2023-07-30T10:25:00;21.10;99.90
18091;DHT22;9172;49.948;9.208;2023-07-30T10:27:36;21.20;99.90
18091;DHT22;9172;49.948;9.208;2023-07-30T10:30:13;21.20;99.90
18091;DHT22;9172;49.948;9.208;2023-07-30T10:32:57;21.10;99.90
18091;DHT22;9172;49.948;9.208;2023-07-30T10:38:19;20.60;99.90
18091;DHT22;9172;49.948;9.208;2023-07-30T10:41:06;20.50;99.90
18091;DHT22;9172;49.948;9.208;2023-07-30T10:43:36;20.50;99.90
18091;DHT22;9172;49.948;9.208;2023-07-30T10:46:05;20.50;99.90
18091;DHT22;9172;49.948;9.208;2023-07-30T10:48:35;20.50;99.90
18091;DHT22;9172;49.948;9.208;2023-07-30T10:51:06;20.50;99.90
18091;DHT22;9172;49.948;9.208;2023-07-30T10:53:35;20.30;99.90
18091;DHT22;9172;49.948;9.208;2023-07-30T10:56:05;20.20;99.90
18091;DHT22;9172;49.948;9.208;2023-07-30T10:58:37;20.00;99.90
18091;DHT22;9172;49.948;9.208;2023-07-30T11:01:07;19.90;99.90
18091;DHT22;9172;49.948;9.208;2023-07-30T11:03:36;19.90;99.90
18091;DHT22;9172;49.948;9.208;2023-07-30T11:06:06;19.90;99.90
18091;DHT22;9172;49.948;9.208;2023-07-30T11:08:36;20.10;99.90
18091;DHT22;9172;49.948;9.208;2023-07-30T11:11:06;20.20;99.90
18091;DHT22;9172;49.948;9.208;2023-07-30T11:13:38;20.30;99.90
18091;DHT22;9172;49.948;9.208;2023-07-30T11:16:08;20.30;99.90
18091;DHT22;9172;49.948;9.208;2023-07-30T11:18:40;20.20;99.90
18091;DHT22;9172;49.948;9.208;2023-07-30T11:21:10;20.00;99.90
18091;DHT22;9172;49.948;9.208;2023-07-30T11:23:41;19.90;99.90
18091;DHT22;9172;49.948;9.208;2023-07-30T11:26:14;19.90;99.90
18091;DHT22;9172;49.948;9.208;2023-07-30T11:28:44;19.90;99.90
18091;DHT22;9172;49.948;9.208;2023-07-30T11:31:15;20.00;99.90
18091;DHT22;9172;49.948;9.208;2023-07-30T11:33:46;20.10;99.90
18091;DHT22;9172;49.948;9.208;2023-07-30T11:36:17;20.30;99.90
18091;DHT22;9172;49.948;9.208;2023-07-30T11:38:48;20.30;99.90
18091;DHT22;9172;49.948;9.208;2023-07-30T11:41:18;20.30;99.90
18091;DHT22;9172;49.948;9.208;2023-07-30T11:43:48;20.50;99.90
18091;DHT22;9172;49.948;9.208;2023-07-30T11:46:19;20.50;99.90
18091;DHT22;9172;49.948;9.208;2023-07-30T11:48:52;20.60;99.90
18091;DHT22;9172;49.948;9.208;2023-07-30T11:51:22;20.70;99.90
18091;DHT22;9172;49.948;9.208;2023-07-30T11:53:53;20.70;99.90
18091;DHT22;9172;49.948;9.208;2023-07-30T11:56:23;20.70;99.90
18091;DHT22;9172;49.948;9.208;2023-07-30T11:58:55;20.70;99.90
18091;DHT22;9172;49.948;9.208;2023-07-30T12:01:26;20.80;99.90
18091;DHT22;9172;49.948;9.208;2023-07-30T12:04:01;20.80;99.90
18091;DHT22;9172;49.948;9.208;2023-07-30T12:06:40;20.70;99.90
18091;DHT22;9172;49.948;9.208;2023-07-30T12:09:13;20.70;99.90
18091;DHT22;9172;49.948;9.208;2023-07-30T12:11:52;20.70;99.90
18091;DHT22;9172;49.948;9.208;2023-07-30T12:14:23;20.70;99.90
18091;DHT22;9172;49.948;9.208;2023-07-30T12:16:52;20.70;99.90
18091;DHT22;9172;49.948;9.208;2023-07-30T12:19:21;20.70;99.90
18091;DHT22;9172;49.948;9.208;2023-07-30T12:21:50;20.70;99.90
18091;DHT22;9172;49.948;9.208;2023-07-30T12:24:18;20.70;99.90
18091;DHT22;9172;49.948;9.208;2023-07-30T12:26:47;20.70;99.90
18091;DHT22;9172;49.948;9.208;2023-07-30T12:29:16;20.70;99.90
18091;DHT22;9172;49.948;9.208;2023-07-30T12:31:45;20.70;99.90
18091;DHT22;9172;49.948;9.208;2023-07-30T12:34:14;20.70;99.90
18091;DHT22;9172;49.948;9.208;2023-07-30T12:36:43;20.60;99.90
18091;DHT22;9172;49.948;9.208;2023-07-30T12:39:12;20.50;99.90
18091;DHT22;9172;49.948;9.208;2023-07-30T12:41:42;20.40;99.90
18091;DHT22;9172;49.948;9.208;2023-07-30T12:44:10;20.30;99.90
18091;DHT22;9172;49.948;9.208;2023-07-30T12:46:41;20.30;99.90
18091;DHT22;9172;49.948;9.208;2023-07-30T12:49:10;20.30;99.90
18091;DHT22;9172;49.948;9.208;2023-07-30T12:51:40;20.30;99.90
18091;DHT22;9172;49.948;9.208;2023-07-30T12:54:10;20.30;99.90
18091;DHT22;9172;49.948;9.208;2023-07-30T12:56:39;20.30;99.90
18091;DHT22;9172;49.948;9.208;2023-07-30T12:59:08;20.40;99.90
18091;DHT22;9172;49.948;9.208;2023-07-30T13:01:38;20.40;99.90
18091;DHT22;9172;49.948;9.208;2023-07-30T13:04:07;20.30;99.90
18091;DHT22;9172;49.948;9.208;2023-07-30T13:09:14;20.30;99.90
18091;DHT22;9172;49.948;9.208;2023-07-30T13:11:44;20.30;99.90
18091;DHT22;9172;49.948;9.208;2023-07-30T13:14:13;20.40;99.90
18091;DHT22;9172;49.948;9.208;2023-07-30T13:16:43;20.50;99.90
18091;DHT22;9172;49.948;9.208;2023-07-30T13:19:12;20.60;99.90
18091;DHT22;9172;49.948;9.208;2023-07-30T13:21:41;20.60;99.90
18091;DHT22;9172;49.948;9.208;2023-07-30T13:24:09;20.50;99.90
18091;DHT22;9172;49.948;9.208;2023-07-30T13:26:39;20.60;99.90
18091;DHT22;9172;49.948;9.208;2023-07-30T13:29:07;20.60;99.90
18091;DHT22;9172;49.948;9.208;2023-07-30T13:31:37;20.50;99.90
18091;DHT22;9172;49.948;9.208;2023-07-30T13:34:06;20.50;99.90
18091;DHT22;9172;49.948;9.208;2023-07-30T13:36:36;20.60;99.90
18091;DHT22;9172;49.948;9.208;2023-07-30T13:39:06;20.60;99.90
18091;DHT22;9172;49.948;9.208;2023-07-30T13:41:35;20.70;99.90
18091;DHT22;9172;49.948;9.208;2023-07-30T13:44:04;20.80;99.90
18091;DHT22;9172;49.948;9.208;2023-07-30T13:46:33;20.90;99.90
18091;DHT22;9172;49.948;9.208;2023-07-30T13:49:02;21.00;99.90
18091;DHT22;9172;49.948;9.208;2023-07-30T13:51:31;21.10;99.90
18091;DHT22;9172;49.948;9.208;2023-07-30T13:54:01;21.10;99.90
18091;DHT22;9172;49.948;9.208;2023-07-30T13:56:31;21.20;99.90
18091;DHT22;9172;49.948;9.208;2023-07-30T13:59:00;21.20;99.90
18091;DHT22;9172;49.948;9.208;2023-07-30T14:01:29;21.30;99.90
18091;DHT22;9172;49.948;9.208;2023-07-30T14:03:59;21.20;99.90
18091;DHT22;9172;49.948;9.208;2023-07-30T14:06:28;21.10;99.90
18091;DHT22;9172;49.948;9.208;2023-07-30T14:08:59;21.10;99.90
18091;DHT22;9172;49.948;9.208;2023-07-30T14:11:27;21.10;99.90
18091;DHT22;9172;49.948;9.208;2023-07-30T14:13:57;21.00;99.90
18091;DHT22;9172;49.948;9.208;2023-07-30T14:16:27;21.00;99.90
18091;DHT22;9172;49.948;9.208;2023-07-30T14:18:56;21.00;99.90
18091;DHT22;9172;49.948;9.208;2023-07-30T14:21:24;21.10;99.90
18091;DHT22;9172;49.948;9.208;2023-07-30T14:23:53;21.00;99.90
18091;DHT22;9172;49.948;9.208;2023-07-30T14:26:22;20.90;99.90
18091;DHT22;9172;49.948;9.208;2023-07-30T14:28:52;20.90;99.90
18091;DHT22;9172;49.948;9.208;2023-07-30T14:31:22;20.90;99.90
18091;DHT22;9172;49.948;9.208;2023-07-30T14:33:51;20.90;99.90
18091;DHT22;9172;49.948;9.208;2023-07-30T14:36:20;20.90;99.90
18091;DHT22;9172;49.948;9.208;2023-07-30T14:38:49;20.90;99.90
18091;DHT22;9172;49.948;9.208;2023-07-30T14:41:20;20.90;99.90
18091;DHT22;9172;49.948;9.208;2023-07-30T14:43:49;20.80;99.90
18091;DHT22;9172;49.948;9.208;2023-07-30T14:46:18;20.80;99.90
18091;DHT22;9172;49.948;9.208;2023-07-30T14:48:47;20.70;99.90
18091;DHT22;9172;49.948;9.208;2023-07-30T14:51:16;20.70;99.90
18091;DHT22;9172;49.948;9.208;2023-07-30T14:53:47;20.80;99.90
18091;DHT22;9172;49.948;9.208;2023-07-30T14:56:16;20.90;99.90
18091;DHT22;9172;49.948;9.208;2023-07-30T14:58:45;21.00;99.90
18091;DHT22;9172;49.948;9.208;2023-07-30T15:01:15;21.10;99.90
18091;DHT22;9172;49.948;9.208;2023-07-30T15:03:44;21.10;99.90
18091;DHT22;9172;49.948;9.208;2023-07-30T15:06:13;21.00;99.90
18091;DHT22;9172;49.948;9.208;2023-07-30T15:08:42;21.00;99.90
18091;DHT22;9172;49.948;9.208;2023-07-30T15:11:12;20.90;99.90
18091;DHT22;9172;49.948;9.208;2023-07-30T15:13:41;20.90;99.90
18091;DHT22;9172;49.948;9.208;2023-07-30T15:16:10;20.80;99.90
18091;DHT22;9172;49.948;9.208;2023-07-30T15:18:40;20.90;99.90
18091;DHT22;9172;49.948;9.208;2023-07-30T15:21:10;20.90;99.90
18091;DHT22;9172;49.948;9.208;2023-07-30T15:23:41;20.90;99.90
18091;DHT22;9172;49.948;9.208;2023-07-30T15:26:10;20.80;99.90
18091;DHT22;9172;49.948;9.208;2023-07-30T15:28:39;20.80;99.90
18091;DHT22;9172;49.948;9.208;2023-07-30T15:31:09;20.70;99.90
18091;DHT22;9172;49.948;9.208;2023-07-30T15:33:38;20.70;99.90
18091;DHT22;9172;49.948;9.208;2023-07-30T15:36:06;20.70;99.90
18091;DHT22;9172;49.948;9.208;2023-07-30T15:38:35;20.70;99.90
18091;DHT22;9172;49.948;9.208;2023-07-30T15:41:04;20.70;99.90
18091;DHT22;9172;49.948;9.208;2023-07-30T15:43:34;20.70;99.90
18091;DHT22;9172;49.948;9.208;2023-07-30T15:46:06;20.70;99.90
18091;DHT22;9172;49.948;9.208;2023-07-30T15:48:35;20.70;99.90
18091;DHT22;9172;49.948;9.208;2023-07-30T15:51:04;20.70;99.90
18091;DHT22;9172;49.948;9.208;2023-07-30T15:53:33;20.70;99.90
18091;DHT22;9172;49.948;9.208;2023-07-30T15:56:01;20.70;99.90
18091;DHT22;9172;49.948;9.208;2023-07-30T15:58:31;20.70;99.90
18091;DHT22;9172;49.948;9.208;2023-07-30T16:01:04;20.70;99.90
18091;DHT22;9172;49.948;9.208;2023-07-30T16:03:33;20.70;99.90
18091;DHT22;9172;49.948;9.208;2023-07-30T16:06:03;20.70;99.90
18091;DHT22;9172;49.948;9.208;2023-07-30T16:08:33;20.60;99.90
18091;DHT22;9172;49.948;9.208;2023-07-30T16:11:02;20.60;99.90